.
WxDataArchive / Data Records for 2014-09-04
2014-09-03 September 2014 2014-09-05

Data Records for Thursday, 04 September 2014

Time	Temp	Chill	HIndex	Humid	Dewpt	 Wind 	HiWind	WindDir	Rain 	Barom
-----	----	-----	------	-----	-----	------	------	-------	-----	-----
00:00	66.9	66.9	66.9	85	62.2	0	0	---	0.00	30.012 
00:05	66.9	66.9	66.9	86	62.6	0	0	---	0.00	30.012 
00:10	66.8	66.8	66.8	86	62.5	0	0	---	0.00	30.012 
00:15	66.8	66.8	66.8	87	62.8	0	0	---	0.00	30.013 
00:20	66.8	66.8	66.8	87	62.8	0	0	---	0.00	30.013 
00:25	66.6	66.6	66.6	87	62.6	0	0	---	0.00	30.013 
00:30	66.4	66.4	66.4	87	62.4	0	0	---	0.00	30.015 
00:35	66.3	66.3	66.3	87	62.3	0	0	---	0.00	30.015 
00:40	66.1	66.1	66.1	87	62.1	0	0	---	0.00	30.015 
00:45	66.0	66.0	66.0	88	62.3	0	0	---	0.00	30.022 
00:50	66.0	66.0	66.0	88	62.3	0	0	---	0.00	30.022 
00:55	65.8	65.8	65.8	88	62.1	0	0	---	0.00	30.022 
01:00	65.8	65.8	65.8	88	62.1	0	0	---	0.00	30.017 
01:05	65.6	65.6	65.6	88	61.9	0	0	---	0.00	30.017 
01:10	65.6	65.6	65.6	88	61.9	0	0	---	0.00	30.017 
01:15	65.6	65.6	65.6	88	61.9	0	0	---	0.00	30.015 
01:20	65.5	65.5	65.5	88	61.8	0	0	---	0.00	30.015 
01:25	65.5	65.5	65.5	89	62.2	0	0	---	0.00	30.015 
01:30	65.3	65.3	65.3	89	62.0	0	0	---	0.00	30.018 
01:35	65.3	65.3	65.3	89	62.0	0	0	---	0.00	30.018 
01:40	65.3	65.3	65.3	89	62.0	0	0	---	0.00	30.018 
01:45	65.2	65.2	65.2	89	61.9	0	0	---	0.00	30.015 
01:50	65.2	65.2	65.2	89	61.9	0	0	---	0.00	30.015 
01:55	65.2	65.2	65.2	89	61.9	0	0	---	0.00	30.015 
02:00	65.0	65.0	65.0	89	61.7	0	0	---	0.00	30.018 
02:05	65.0	65.0	65.0	89	61.7	0	0	---	0.00	30.018 
02:10	65.0	65.0	65.0	89	61.7	0	0	---	0.00	30.018 
02:15	65.0	65.0	65.0	89	61.7	0	0	---	0.00	30.018 
02:20	64.8	64.8	64.8	90	61.8	0	0	---	0.00	30.018 
02:25	64.8	64.8	64.8	90	61.8	0	0	---	0.00	30.018 
02:30	64.8	64.8	64.8	90	61.8	0	0	---	0.00	30.023 
02:35	65.0	65.0	65.0	90	62.0	0	0	---	0.00	30.023 
02:40	65.2	65.2	65.2	90	62.2	0	0	---	0.00	30.023 
02:45	65.3	65.3	65.3	90	62.3	0	0	---	0.00	30.018 
02:50	65.5	65.5	65.5	90	62.5	0	0	---	0.00	30.018 
02:55	65.6	65.6	65.6	89	62.3	0	0	---	0.00	30.018 
03:00	65.6	65.6	65.6	89	62.3	0	0	---	0.00	30.013 
03:05	65.6	65.6	65.6	88	61.9	0	0	---	0.00	30.013 
03:10	65.6	65.6	65.6	88	61.9	0	0	---	0.00	30.013 
03:15	65.8	65.8	65.8	88	62.1	0	0	---	0.00	30.008 
03:20	66.0	66.0	66.0	87	62.0	0	0	---	0.00	30.008 
03:25	66.0	66.0	66.0	87	62.0	0	0	---	0.00	30.008 
03:30	66.0	66.0	66.0	87	62.0	0	0	---	0.00	30.008 
03:35	66.0	66.0	66.0	87	62.0	0	0	---	0.00	30.008 
03:40	66.0	66.0	66.0	87	62.0	0	0	---	0.00	30.008 
03:45	66.0	66.0	66.0	87	62.0	0	0	---	0.00	29.998 
03:50	66.0	66.0	66.0	87	62.0	0	0	---	0.00	29.998 
03:55	65.8	65.8	65.8	87	61.8	0	0	---	0.00	29.998 
04:00	65.8	65.8	65.8	87	61.8	0	0	---	0.00	30.006 
04:05	65.8	65.8	65.8	87	61.8	0	0	---	0.00	30.006 
04:10	65.6	65.6	65.6	88	61.9	0	0	---	0.00	30.006 
04:15	65.6	65.6	65.6	88	61.9	0	0	---	0.00	30.009 
04:20	65.5	65.5	65.5	88	61.8	0	0	---	0.00	30.009 
04:25	65.5	65.5	65.5	88	61.8	0	0	---	0.00	30.009 
04:30	65.3	65.3	65.3	88	61.6	0	0	---	0.00	30.007 
04:35	65.2	65.2	65.2	88	61.6	0	0	---	0.00	30.007 
04:40	65.0	65.0	65.0	88	61.4	0	0	---	0.00	30.007 
04:45	65.0	65.0	65.0	89	61.7	0	0	---	0.00	30.005 
04:50	65.0	65.0	65.0	89	61.7	0	0	---	0.00	30.005 
04:55	64.8	64.8	64.8	89	61.5	0	0	---	0.00	30.005 
05:00	64.8	64.8	64.8	89	61.5	0	0	---	0.00	29.996 
05:05	64.7	64.7	64.7	89	61.4	0	0	---	0.00	29.996 
05:10	64.7	64.7	64.7	89	61.4	0	0	---	0.00	29.996 
05:15	64.5	64.5	64.5	89	61.2	0	0	---	0.00	29.990 
05:20	64.5	64.5	64.5	89	61.2	0	0	---	0.00	29.990 
05:25	64.3	64.3	64.3	89	61.0	0	0	---	0.00	29.990 
05:30	64.3	64.3	64.3	90	61.3	0	0	---	0.00	29.993 
05:35	64.2	64.2	64.2	90	61.2	0	0	---	0.00	29.993 
05:40	64.2	64.2	64.2	90	61.2	0	0	---	0.00	29.993 
05:45	64.0	64.0	64.0	90	61.0	0	0	---	0.00	29.989 
05:50	64.0	64.0	64.0	90	61.0	0	0	---	0.00	29.989 
05:55	64.0	64.0	64.0	90	61.0	0	0	---	0.00	29.989 
06:00	63.9	63.9	63.9	90	60.9	0	0	---	0.00	29.991 
06:05	63.9	63.9	63.9	90	60.9	0	0	---	0.00	29.991 
06:10	63.7	63.7	63.7	90	60.7	0	0	---	0.00	29.991 
06:15	63.5	63.5	63.5	90	60.5	0	0	---	0.00	29.994 
06:20	63.4	63.4	63.4	90	60.4	0	0	---	0.00	29.994 
06:25	63.2	63.2	63.2	91	60.5	0	0	---	0.00	29.994 
06:30	63.4	63.4	63.4	91	60.7	0	0	---	0.00	29.988 
06:35	63.4	63.4	63.4	91	60.7	0	0	---	0.00	29.988 
06:40	63.4	63.4	63.4	91	60.7	0	0	---	0.00	29.988 
06:45	63.4	63.4	63.4	91	60.7	0	0	---	0.00	29.988 
06:50	63.4	63.4	63.4	91	60.7	0	0	---	0.00	29.988 
06:55	63.4	63.4	63.4	91	60.7	0	1	90	0.00	29.988 
07:00	63.4	63.4	63.4	91	60.7	0	0	---	0.00	29.987 
07:05	63.4	63.4	63.4	91	60.7	0	0	---	0.00	29.987 
07:10	63.4	63.4	63.4	91	60.7	0	0	---	0.00	29.987 
07:15	63.4	63.4	63.4	91	60.7	0	0	---	0.00	29.990 
07:20	63.4	63.4	63.4	91	60.7	0	0	---	0.00	29.990 
07:25	63.5	63.5	63.5	91	60.8	0	0	---	0.00	29.990 
07:30	63.5	63.5	63.5	91	60.8	0	0	---	0.00	29.998 
07:35	63.7	63.7	63.7	91	61.0	0	0	---	0.00	29.998 
07:40	63.9	63.9	63.9	91	61.2	0	0	---	0.00	29.998 
07:45	64.0	64.0	64.0	91	61.3	0	0	---	0.00	30.005 
07:50	64.3	64.3	64.3	91	61.6	0	1	90	0.00	30.005 
07:55	64.5	64.5	64.5	91	61.8	0	0	---	0.00	30.005 
08:00	64.8	64.8	64.8	91	62.1	0	0	---	0.00	30.010 
08:05	65.3	65.3	65.3	90	62.3	0	1	90	0.00	30.010 
08:10	65.6	65.6	65.6	90	62.6	0	0	---	0.00	30.010 
08:15	66.0	66.0	66.0	89	62.7	0	0	---	0.00	30.015 
08:20	66.4	66.4	66.4	88	62.7	0	0	---	0.00	30.015 
08:25	66.9	66.9	66.9	88	63.2	0	1	90	0.00	30.015 
08:30	67.3	67.3	67.3	87	63.3	0	1	90	0.00	30.011 
08:35	67.8	67.8	67.8	87	63.8	0	1	90	0.00	30.011 
08:40	68.3	68.3	68.3	86	63.9	0	1	90	0.00	30.011 
08:45	68.6	68.6	68.6	86	64.2	0	0	---	0.00	30.017 
08:50	69.1	69.1	69.1	85	64.4	0	1	90	0.00	30.017 
08:55	69.6	69.6	69.6	85	64.9	0	1	90	0.00	30.017 
09:00	70.1	70.1	70.1	84	65.0	0	2	90	0.00	30.015 
09:05	70.4	70.4	70.4	84	65.3	0	2	90	0.00	30.015 
09:10	70.9	70.9	70.9	83	65.5	0	1	90	0.00	30.015 
09:15	71.3	71.3	71.3	83	65.9	0	1	90	0.00	30.029 
09:20	71.6	71.6	71.6	83	66.2	0	1	90	0.00	30.029 
09:25	72.0	72.0	72.0	82	66.2	0	1	90	0.00	30.029 
09:30	72.3	72.3	72.3	81	66.1	0	1	90	0.00	30.026 
09:35	72.8	72.8	72.8	81	66.6	0	2	90	0.00	30.026 
09:40	73.2	73.2	73.2	80	66.6	0	1	90	0.00	30.026 
09:45	73.5	73.5	73.5	79	66.6	0	1	90	0.00	30.027 
09:50	74.0	74.0	74.0	79	67.1	0	1	90	0.00	30.027 
09:55	74.6	74.6	74.6	78	67.3	0	2	90	0.00	30.027 
10:00	75.1	75.1	76.1	77	67.4	0	3	90	0.00	30.030 
10:05	75.6	75.6	76.8	76	67.5	0	1	90	0.00	30.030 
10:10	76.1	76.1	77.5	74	67.2	0	2	90	0.00	30.030 
10:15	76.5	76.5	78.1	74	67.6	0	2	90	0.00	30.036 
10:20	77.0	77.0	78.7	73	67.7	0	1	90	0.00	30.036 
10:25	77.4	77.4	79.3	72	67.6	0	2	90	0.00	30.036 
10:30	77.9	77.9	79.9	71	67.7	1	3	292	0.00	30.044 
10:35	78.1	78.1	80.2	70	67.5	1	5	292	0.00	30.044 
10:40	78.3	78.3	80.4	70	67.7	2	5	270	0.00	30.044 
10:45	78.1	78.1	80.2	70	67.5	1	4	292	0.00	30.051 
10:50	77.9	77.9	79.9	72	68.1	0	3	292	0.00	30.051 
10:55	77.9	77.9	79.9	72	68.1	0	1	292	0.00	30.051 
11:00	77.9	77.9	79.9	72	68.1	0	1	292	0.00	30.047 
11:05	78.3	78.3	80.6	73	68.9	0	1	292	0.00	30.047 
11:10	78.3	78.3	80.5	72	68.5	1	3	292	0.00	30.047 
11:15	78.3	78.3	80.5	72	68.5	1	4	292	0.00	30.057 
11:20	78.3	78.3	80.5	72	68.5	0	3	292	0.00	30.057 
11:25	78.5	78.5	80.8	72	68.7	1	3	292	0.00	30.057 
11:30	79.0	79.0	81.5	71	68.8	1	5	270	0.00	30.045 
11:35	79.6	79.6	82.4	71	69.3	1	3	270	0.00	30.045 
11:40	80.3	80.3	83.3	69	69.2	1	3	292	0.00	30.045 
11:45	80.7	80.7	83.8	68	69.1	1	3	292	0.00	30.040 
11:50	81.4	81.4	85.0	68	69.8	1	3	292	0.00	30.040 
11:55	82.2	82.2	85.5	64	68.8	1	3	338	0.00	30.040 
12:00	82.4	82.4	85.6	63	68.5	1	5	338	0.00	30.030 
12:05	82.2	82.2	85.3	63	68.3	2	6	270	0.00	30.030 
12:10	82.0	82.0	85.2	64	68.6	1	4	292	0.00	30.030 
12:15	82.0	82.0	85.0	63	68.1	1	3	292	0.00	30.026 
12:20	82.0	82.0	85.0	63	68.1	2	4	292	0.00	30.026 
12:25	81.8	81.8	84.5	62	67.5	1	3	292	0.00	30.026 
12:30	81.8	81.8	84.9	64	68.4	2	5	270	0.00	30.025 
12:35	82.2	82.2	85.3	63	68.3	1	4	270	0.00	30.025 
12:40	82.4	82.4	85.4	62	68.0	2	5	270	0.00	30.025 
12:45	82.0	82.0	85.0	63	68.1	2	5	292	0.00	30.022 
12:50	81.6	81.6	84.6	64	68.2	2	5	292	0.00	30.022 
12:55	81.4	81.4	84.3	64	68.0	1	3	292	0.00	30.022 
13:00	81.1	81.1	84.0	65	68.2	1	3	292	0.00	30.022 
13:05	81.2	81.2	84.1	65	68.3	1	2	292	0.00	30.022 
13:10	81.6	81.6	84.6	64	68.2	0	2	292	0.00	30.022 
13:15	82.0	82.0	85.2	64	68.6	0	2	292	0.00	30.013 
13:20	82.2	82.2	85.3	63	68.3	1	2	292	0.00	30.013 
13:25	82.2	82.2	85.5	64	68.8	0	3	292	0.00	30.013 
13:30	82.2	82.2	85.3	63	68.3	0	2	292	0.00	30.005 
13:35	82.6	82.6	85.9	63	68.7	0	0	---	0.00	30.005 
13:40	83.0	83.0	86.6	63	69.1	0	3	292	0.00	30.005 
13:45	83.8	83.8	87.5	61	68.9	1	5	90	0.00	29.987 
13:50	84.3	84.3	88.0	60	68.9	0	2	22	0.00	29.987 
13:55	84.7	84.7	89.0	61	69.7	1	2	292	0.00	29.987 
14:00	85.1	85.1	88.8	58	68.6	0	3	90	0.00	29.975 
14:05	85.3	85.3	89.2	58	68.8	1	3	90	0.00	29.975 
14:10	85.3	85.3	88.8	57	68.3	1	4	22	0.00	29.975 
14:15	84.7	84.7	88.4	59	68.8	1	5	270	0.00	29.984 
14:20	84.9	84.9	88.8	59	68.9	1	4	315	0.00	29.984 
14:25	85.3	85.3	89.5	59	69.3	1	4	68	0.00	29.984 
14:30	85.5	85.5	89.8	59	69.5	0	3	112	0.00	29.971 
14:35	86.1	86.1	90.6	58	69.6	1	4	90	0.00	29.971 
14:40	86.3	86.3	90.2	56	68.7	1	4	270	0.00	29.971 
14:45	86.3	86.3	90.6	57	69.2	1	3	45	0.00	29.971 
14:50	86.3	86.3	90.2	56	68.7	1	7	270	0.00	29.971 
14:55	86.1	86.1	89.6	55	68.0	2	5	270	0.00	29.971 
15:00	85.7	85.7	89.5	57	68.7	1	5	248	0.00	29.974 
15:05	85.5	85.5	89.5	58	69.0	2	5	315	0.00	29.974 
15:10	85.5	85.5	89.8	59	69.5	1	5	270	0.00	29.974 
15:15	85.7	85.7	89.9	58	69.2	1	4	292	0.00	29.964 
15:20	85.9	85.9	89.9	57	68.9	1	4	68	0.00	29.964 
15:25	85.7	85.7	89.5	57	68.7	1	4	270	0.00	29.964 
15:30	85.5	85.5	89.5	58	69.0	1	6	22	0.00	29.961 
15:35	85.7	85.7	89.9	58	69.2	1	4	22	0.00	29.961 
15:40	86.1	86.1	90.6	58	69.6	1	4	292	0.00	29.961 
15:45	86.3	86.3	90.6	57	69.2	2	5	292	0.00	29.961 
15:50	86.7	86.7	90.6	55	68.6	2	4	292	0.00	29.961 
15:55	87.0	87.0	91.5	56	69.4	1	3	248	0.00	29.961 
16:00	87.4	87.4	92.2	56	69.7	1	3	248	0.00	29.951 
16:05	87.2	87.2	91.5	55	69.0	2	9	270	0.00	29.951 
16:10	87.0	87.0	91.5	56	69.4	1	3	270	0.00	29.951 
16:15	86.5	86.5	91.0	57	69.4	1	3	270	0.00	29.943 
16:20	86.1	86.1	90.6	58	69.6	0	3	270	0.00	29.943 
16:25	85.7	85.7	89.9	58	69.2	1	3	270	0.00	29.943 
16:30	85.3	85.3	89.2	58	68.8	0	3	45	0.00	29.945 
16:35	85.3	85.3	89.2	58	68.8	1	3	292	0.00	29.945 
16:40	85.5	85.5	89.5	58	69.0	1	6	270	0.00	29.945 
16:45	85.5	85.5	89.8	59	69.5	1	5	270	0.00	29.944 
16:50	85.7	85.7	90.2	59	69.7	1	4	248	0.00	29.944 
16:55	85.5	85.5	89.2	57	68.5	1	7	248	0.00	29.944 
17:00	85.1	85.1	89.1	59	69.1	0	2	338	0.00	29.946 
17:05	84.7	84.7	88.7	60	69.2	0	3	338	0.00	29.946 
17:10	84.5	84.5	88.4	60	69.1	1	3	248	0.00	29.946 
17:15	84.1	84.1	88.0	61	69.2	0	3	248	0.00	29.945 
17:20	84.1	84.1	88.0	61	69.2	0	4	248	0.00	29.945 
17:25	84.1	84.1	88.0	61	69.2	0	3	90	0.00	29.945 
17:30	84.3	84.3	88.3	61	69.4	0	2	0	0.00	29.951 
17:35	84.3	84.3	88.0	60	68.9	1	2	0	0.00	29.951 
17:40	84.1	84.1	87.7	60	68.7	0	1	315	0.00	29.951 
17:45	84.0	84.0	87.5	60	68.6	0	2	45	0.00	29.961 
17:50	84.0	84.0	87.8	61	69.1	0	1	45	0.00	29.961 
17:55	84.0	84.0	87.8	61	69.1	0	1	45	0.00	29.961 
18:00	84.0	84.0	88.1	62	69.5	0	1	45	0.00	29.962 
18:05	84.0	84.0	88.1	62	69.5	0	2	45	0.00	29.962 
18:10	83.8	83.8	87.7	62	69.4	0	1	45	0.00	29.962 
18:15	83.8	83.8	87.7	62	69.4	0	1	45	0.00	29.965 
18:20	83.6	83.6	87.4	62	69.2	0	0	---	0.00	29.965 
18:25	83.6	83.6	87.4	62	69.2	0	1	45	0.00	29.965 
18:30	83.4	83.4	87.0	62	69.0	0	1	45	0.00	29.964 
18:35	83.2	83.2	86.9	63	69.3	0	1	45	0.00	29.964 
18:40	83.2	83.2	86.9	63	69.3	0	1	45	0.00	29.964 
18:45	83.0	83.0	86.6	63	69.1	0	0	---	0.00	29.974 
18:50	82.8	82.8	86.5	64	69.3	0	0	---	0.00	29.974 
18:55	82.6	82.6	86.2	64	69.2	0	0	---	0.00	29.974 
19:00	82.4	82.4	86.1	65	69.4	0	0	---	0.00	29.980 
19:05	82.4	82.4	86.1	65	69.4	0	0	---	0.00	29.980 
19:10	82.4	82.4	86.1	65	69.4	0	0	---	0.00	29.980 
19:15	82.4	82.4	86.1	65	69.4	0	0	---	0.00	29.979 
19:20	82.4	82.4	86.1	65	69.4	0	1	45	0.00	29.979 
19:25	82.4	82.4	86.1	65	69.4	0	1	45	0.00	29.979 
19:30	82.4	82.4	86.1	65	69.4	0	0	---	0.00	29.987 
19:35	82.2	82.2	85.7	65	69.2	0	0	---	0.00	29.987 
19:40	82.2	82.2	85.7	65	69.2	0	0	---	0.00	29.987 
19:45	82.2	82.2	85.7	65	69.2	0	0	---	0.00	29.987 
19:50	82.0	82.0	85.4	65	69.0	0	0	---	0.00	29.987 
19:55	82.0	82.0	85.4	65	69.0	0	0	---	0.00	29.987 
20:00	81.8	81.8	85.3	66	69.3	0	0	---	0.00	29.985 
20:05	81.6	81.6	85.1	67	69.6	0	0	---	0.00	29.985 
20:10	81.2	81.2	84.6	68	69.6	0	0	---	0.00	29.985 
20:15	81.1	81.1	84.5	68	69.5	0	0	---	0.00	29.982 
20:20	80.7	80.7	84.0	69	69.6	0	0	---	0.00	29.982 
20:25	80.3	80.3	83.4	70	69.6	0	0	---	0.00	29.982 
20:30	79.9	79.9	82.8	70	69.2	0	0	---	0.00	29.977 
20:35	79.8	79.8	82.7	71	69.5	0	0	---	0.00	29.977 
20:40	79.4	79.4	82.2	72	69.6	0	1	45	0.00	29.977 
20:45	79.2	79.2	82.0	73	69.8	0	1	45	0.00	29.976 
20:50	79.0	79.0	81.7	74	70.0	0	0	---	0.00	29.976 
20:55	78.8	78.8	81.5	75	70.2	0	0	---	0.00	29.976 
21:00	78.6	78.6	81.1	75	70.0	0	0	---	0.00	29.978 
21:05	78.5	78.5	81.0	76	70.3	0	0	---	0.00	29.978 
21:10	78.3	78.3	80.7	76	70.1	0	1	45	0.00	29.978 
21:15	78.1	78.1	80.4	77	70.3	0	0	---	0.00	29.976 
21:20	78.1	78.1	80.4	77	70.3	0	1	45	0.00	29.976 
21:25	77.9	77.9	80.1	77	70.1	0	1	45	0.00	29.976 
21:30	77.9	77.9	80.1	77	70.1	0	1	45	0.00	29.986 
21:35	77.7	77.7	79.7	77	69.9	0	1	45	0.00	29.986 
21:40	77.7	77.7	79.7	77	69.9	0	1	45	0.00	29.986 
21:45	77.6	77.6	79.6	78	70.2	0	1	45	0.00	29.993 
21:50	77.2	77.2	78.9	78	69.8	0	0	---	0.00	29.993 
21:55	77.0	77.0	78.6	79	70.0	0	0	---	0.00	29.993 
22:00	76.8	76.8	78.3	79	69.8	0	0	---	0.00	29.994 
22:05	76.5	76.5	77.8	79	69.5	0	0	---	0.00	29.994 
22:10	76.3	76.3	77.5	79	69.3	0	0	---	0.00	29.994 
22:15	76.1	76.1	77.2	79	69.1	0	0	---	0.00	29.998 
22:20	76.1	76.1	77.2	79	69.1	0	1	45	0.00	29.998 
22:25	76.1	76.1	77.3	78	68.7	0	1	45	0.00	29.998 
22:30	76.3	76.3	77.6	78	68.9	0	0	---	0.00	30.007 
22:35	76.3	76.3	77.6	78	68.9	0	1	45	0.00	30.007 
22:40	76.3	76.3	77.6	77	68.5	0	0	---	0.00	30.007 
22:45	76.3	76.3	77.6	77	68.5	0	1	45	0.00	30.006 
22:50	76.3	76.3	77.6	77	68.5	0	0	---	0.00	30.006 
22:55	76.3	76.3	77.6	77	68.5	0	0	---	0.00	30.006 
23:00	76.5	76.5	77.9	77	68.7	0	0	---	0.00	30.009 
23:05	76.5	76.5	77.9	77	68.7	0	0	---	0.00	30.009 
23:10	76.3	76.3	77.6	77	68.5	0	0	---	0.00	30.009 
23:15	76.3	76.3	77.6	77	68.5	0	0	---	0.00	30.008 
23:20	76.1	76.1	77.4	77	68.3	0	0	---	0.00	30.008 
23:25	76.0	76.0	77.2	77	68.3	0	0	---	0.00	30.008 
23:30	75.8	75.8	76.9	78	68.4	0	0	---	0.00	30.014 
23:35	75.8	75.8	76.9	78	68.4	0	0	---	0.00	30.014 
23:40	75.6	75.6	76.6	78	68.2	0	0	---	0.00	30.014 
23:45	75.3	75.3	76.1	79	68.3	0	0	---	0.00	30.018 
23:50	75.1	75.1	75.7	80	68.5	0	0	---	0.00	30.018 
23:55	74.9	74.9	74.9	80	68.3	0	1	45	0.00	30.018 

CoCoRaHS
IN-AL-39
A2 Web Hosting
Creative Commons License
GoDaddy
search engine by freefind advanced

loaded 2018-11-17 23:16:09 • last modified 2010-11-18 10:43:29
Privacy PolicyDisclaimer
• wx.awcolley.com is powered by PmWiki v.2002016 •
• all content (unless otherwise noted) © 2018 A W Colley